sensor_id;sensor_type;location;lat;lon;timestamp;P1;durP1;ratioP1;P2;durP2;ratioP2
78783;SDS011;68127;51.050;14.084;2023-06-26T00:01:38;8.00;;;5.78;;
78783;SDS011;68127;51.050;14.084;2023-06-26T00:04:04;8.07;;;5.60;;
78783;SDS011;68127;51.050;14.084;2023-06-26T00:06:30;9.35;;;5.47;;
78783;SDS011;68127;51.050;14.084;2023-06-26T00:08:55;8.25;;;5.68;;
78783;SDS011;68127;51.050;14.084;2023-06-26T00:11:21;7.95;;;5.97;;
78783;SDS011;68127;51.050;14.084;2023-06-26T00:13:47;7.53;;;5.80;;
78783;SDS011;68127;51.050;14.084;2023-06-26T00:16:12;8.00;;;5.50;;
78783;SDS011;68127;51.050;14.084;2023-06-26T00:18:38;8.32;;;5.60;;
78783;SDS011;68127;51.050;14.084;2023-06-26T00:21:03;7.60;;;5.70;;
78783;SDS011;68127;51.050;14.084;2023-06-26T00:23:28;8.45;;;5.80;;
78783;SDS011;68127;51.050;14.084;2023-06-26T00:25:55;7.65;;;5.15;;
78783;SDS011;68127;51.050;14.084;2023-06-26T00:28:21;10.32;;;5.38;;
78783;SDS011;68127;51.050;14.084;2023-06-26T00:30:46;7.90;;;5.22;;
78783;SDS011;68127;51.050;14.084;2023-06-26T00:33:11;10.27;;;6.10;;
78783;SDS011;68127;51.050;14.084;2023-06-26T00:35:36;7.82;;;6.05;;
78783;SDS011;68127;51.050;14.084;2023-06-26T00:38:02;7.20;;;5.30;;
78783;SDS011;68127;51.050;14.084;2023-06-26T00:40:27;7.95;;;5.63;;
78783;SDS011;68127;51.050;14.084;2023-06-26T00:42:52;10.25;;;6.35;;
78783;SDS011;68127;51.050;14.084;2023-06-26T00:45:18;11.10;;;5.72;;
78783;SDS011;68127;51.050;14.084;2023-06-26T00:47:43;7.53;;;5.57;;
78783;SDS011;68127;51.050;14.084;2023-06-26T00:50:08;11.93;;;5.50;;
78783;SDS011;68127;51.050;14.084;2023-06-26T00:52:34;9.13;;;5.70;;
78783;SDS011;68127;51.050;14.084;2023-06-26T00:54:59;8.65;;;5.63;;
78783;SDS011;68127;51.050;14.084;2023-06-26T00:57:24;7.07;;;5.22;;
78783;SDS011;68127;51.050;14.084;2023-06-26T00:59:50;8.75;;;5.80;;
78783;SDS011;68127;51.050;14.084;2023-06-26T01:02:15;8.63;;;5.70;;
78783;SDS011;68127;51.050;14.084;2023-06-26T01:04:46;7.32;;;5.63;;
78783;SDS011;68127;51.050;14.084;2023-06-26T01:07:13;12.75;;;6.10;;
78783;SDS011;68127;51.050;14.084;2023-06-26T01:09:39;8.07;;;5.40;;
78783;SDS011;68127;51.050;14.084;2023-06-26T01:12:04;8.18;;;5.80;;
78783;SDS011;68127;51.050;14.084;2023-06-26T01:14:30;7.13;;;5.40;;
78783;SDS011;68127;51.050;14.084;2023-06-26T01:16:57;7.82;;;5.93;;
78783;SDS011;68127;51.050;14.084;2023-06-26T01:19:23;10.05;;;5.93;;
78783;SDS011;68127;51.050;14.084;2023-06-26T01:21:51;9.75;;;6.10;;
78783;SDS011;68127;51.050;14.084;2023-06-26T01:24:22;8.70;;;5.95;;
78783;SDS011;68127;51.050;14.084;2023-06-26T01:26:52;8.35;;;5.82;;
78783;SDS011;68127;51.050;14.084;2023-06-26T01:29:18;9.55;;;5.72;;
78783;SDS011;68127;51.050;14.084;2023-06-26T01:31:44;8.43;;;5.50;;
78783;SDS011;68127;51.050;14.084;2023-06-26T01:34:17;8.68;;;5.78;;
78783;SDS011;68127;51.050;14.084;2023-06-26T01:36:43;7.90;;;5.65;;
78783;SDS011;68127;51.050;14.084;2023-06-26T01:39:10;8.43;;;5.80;;
78783;SDS011;68127;51.050;14.084;2023-06-26T01:41:35;9.55;;;5.78;;
78783;SDS011;68127;51.050;14.084;2023-06-26T01:44:03;8.73;;;5.50;;
78783;SDS011;68127;51.050;14.084;2023-06-26T01:49:21;7.72;;;5.63;;
78783;SDS011;68127;51.050;14.084;2023-06-26T01:55:02;7.43;;;5.38;;
78783;SDS011;68127;51.050;14.084;2023-06-26T01:57:31;7.45;;;5.65;;
78783;SDS011;68127;51.050;14.084;2023-06-26T01:59:57;8.50;;;5.65;;
78783;SDS011;68127;51.050;14.084;2023-06-26T02:02:24;9.85;;;5.97;;
78783;SDS011;68127;51.050;14.084;2023-06-26T02:04:49;8.07;;;5.50;;
78783;SDS011;68127;51.050;14.084;2023-06-26T02:07:15;9.15;;;5.80;;
78783;SDS011;68127;51.050;14.084;2023-06-26T02:09:40;8.93;;;6.00;;
78783;SDS011;68127;51.050;14.084;2023-06-26T02:12:05;8.40;;;5.78;;
78783;SDS011;68127;51.050;14.084;2023-06-26T02:14:31;8.52;;;5.72;;
78783;SDS011;68127;51.050;14.084;2023-06-26T02:16:56;8.20;;;5.90;;
78783;SDS011;68127;51.050;14.084;2023-06-26T02:19:21;9.68;;;5.97;;
78783;SDS011;68127;51.050;14.084;2023-06-26T02:21:48;8.10;;;5.93;;
78783;SDS011;68127;51.050;14.084;2023-06-26T02:24:16;8.45;;;5.70;;
78783;SDS011;68127;51.050;14.084;2023-06-26T02:26:41;8.52;;;5.25;;
78783;SDS011;68127;51.050;14.084;2023-06-26T02:29:06;8.82;;;5.97;;
78783;SDS011;68127;51.050;14.084;2023-06-26T02:31:31;7.90;;;5.68;;
78783;SDS011;68127;51.050;14.084;2023-06-26T02:33:57;8.32;;;5.45;;
78783;SDS011;68127;51.050;14.084;2023-06-26T02:36:22;8.23;;;5.68;;
78783;SDS011;68127;51.050;14.084;2023-06-26T02:38:47;8.57;;;5.82;;
78783;SDS011;68127;51.050;14.084;2023-06-26T02:41:13;7.63;;;5.35;;
78783;SDS011;68127;51.050;14.084;2023-06-26T02:43:38;9.25;;;6.00;;
78783;SDS011;68127;51.050;14.084;2023-06-26T02:46:03;8.32;;;5.93;;
78783;SDS011;68127;51.050;14.084;2023-06-26T02:48:29;8.43;;;5.38;;
78783;SDS011;68127;51.050;14.084;2023-06-26T02:50:54;8.07;;;5.57;;
78783;SDS011;68127;51.050;14.084;2023-06-26T02:53:19;9.02;;;5.70;;
78783;SDS011;68127;51.050;14.084;2023-06-26T02:55:44;9.13;;;5.57;;
78783;SDS011;68127;51.050;14.084;2023-06-26T02:58:12;8.38;;;5.63;;
78783;SDS011;68127;51.050;14.084;2023-06-26T03:00:38;7.90;;;5.63;;
78783;SDS011;68127;51.050;14.084;2023-06-26T03:03:06;8.40;;;4.85;;
78783;SDS011;68127;51.050;14.084;2023-06-26T03:05:31;7.18;;;5.20;;
78783;SDS011;68127;51.050;14.084;2023-06-26T03:07:56;8.30;;;5.47;;
78783;SDS011;68127;51.050;14.084;2023-06-26T03:10:22;7.63;;;5.88;;
78783;SDS011;68127;51.050;14.084;2023-06-26T03:12:47;8.13;;;5.40;;
78783;SDS011;68127;51.050;14.084;2023-06-26T03:15:12;9.32;;;5.57;;
78783;SDS011;68127;51.050;14.084;2023-06-26T03:17:37;7.45;;;5.28;;
78783;SDS011;68127;51.050;14.084;2023-06-26T03:20:03;9.23;;;5.57;;
78783;SDS011;68127;51.050;14.084;2023-06-26T03:22:31;7.70;;;5.05;;
78783;SDS011;68127;51.050;14.084;2023-06-26T03:24:57;9.80;;;5.38;;
78783;SDS011;68127;51.050;14.084;2023-06-26T03:27:22;8.85;;;4.88;;
78783;SDS011;68127;51.050;14.084;2023-06-26T03:29:47;8.38;;;5.53;;
78783;SDS011;68127;51.050;14.084;2023-06-26T03:32:12;8.18;;;5.57;;
78783;SDS011;68127;51.050;14.084;2023-06-26T03:34:38;9.43;;;5.47;;
78783;SDS011;68127;51.050;14.084;2023-06-26T03:37:03;8.63;;;5.32;;
78783;SDS011;68127;51.050;14.084;2023-06-26T03:39:28;10.30;;;5.78;;
78783;SDS011;68127;51.050;14.084;2023-06-26T03:41:54;7.95;;;5.30;;
78783;SDS011;68127;51.050;14.084;2023-06-26T03:44:19;8.23;;;5.30;;
78783;SDS011;68127;51.050;14.084;2023-06-26T03:46:45;7.97;;;5.70;;
78783;SDS011;68127;51.050;14.084;2023-06-26T03:49:10;8.75;;;5.60;;
78783;SDS011;68127;51.050;14.084;2023-06-26T03:51:35;9.23;;;5.53;;
78783;SDS011;68127;51.050;14.084;2023-06-26T03:54:01;8.98;;;5.60;;
78783;SDS011;68127;51.050;14.084;2023-06-26T03:56:26;8.57;;;5.80;;
78783;SDS011;68127;51.050;14.084;2023-06-26T03:58:51;9.07;;;5.57;;
78783;SDS011;68127;51.050;14.084;2023-06-26T04:01:17;9.15;;;6.40;;
78783;SDS011;68127;51.050;14.084;2023-06-26T04:03:42;9.57;;;5.53;;
78783;SDS011;68127;51.050;14.084;2023-06-26T04:06:07;9.82;;;6.35;;
78783;SDS011;68127;51.050;14.084;2023-06-26T04:08:32;8.77;;;5.28;;
78783;SDS011;68127;51.050;14.084;2023-06-26T04:10:58;10.73;;;5.55;;
78783;SDS011;68127;51.050;14.084;2023-06-26T04:13:23;8.35;;;5.50;;
78783;SDS011;68127;51.050;14.084;2023-06-26T04:15:49;7.97;;;5.40;;
78783;SDS011;68127;51.050;14.084;2023-06-26T04:18:14;10.02;;;5.75;;
78783;SDS011;68127;51.050;14.084;2023-06-26T04:20:40;8.07;;;5.63;;
78783;SDS011;68127;51.050;14.084;2023-06-26T04:23:06;8.13;;;5.10;;
78783;SDS011;68127;51.050;14.084;2023-06-26T04:25:31;7.85;;;5.30;;
78783;SDS011;68127;51.050;14.084;2023-06-26T04:27:57;7.55;;;5.05;;
78783;SDS011;68127;51.050;14.084;2023-06-26T04:30:22;8.00;;;5.38;;
78783;SDS011;68127;51.050;14.084;2023-06-26T04:32:47;8.32;;;5.13;;
78783;SDS011;68127;51.050;14.084;2023-06-26T04:35:13;10.00;;;5.30;;
78783;SDS011;68127;51.050;14.084;2023-06-26T04:37:38;10.05;;;5.47;;
78783;SDS011;68127;51.050;14.084;2023-06-26T04:40:04;8.32;;;5.32;;
78783;SDS011;68127;51.050;14.084;2023-06-26T04:42:30;8.48;;;5.50;;
78783;SDS011;68127;51.050;14.084;2023-06-26T04:44:56;7.50;;;5.10;;
78783;SDS011;68127;51.050;14.084;2023-06-26T04:47:21;7.65;;;5.10;;
78783;SDS011;68127;51.050;14.084;2023-06-26T04:49:46;7.53;;;5.20;;
78783;SDS011;68127;51.050;14.084;2023-06-26T04:52:12;9.10;;;5.32;;
78783;SDS011;68127;51.050;14.084;2023-06-26T04:54:38;10.02;;;5.03;;
78783;SDS011;68127;51.050;14.084;2023-06-26T04:57:03;7.10;;;5.20;;
78783;SDS011;68127;51.050;14.084;2023-06-26T04:59:29;8.20;;;5.32;;
78783;SDS011;68127;51.050;14.084;2023-06-26T05:01:54;7.30;;;5.28;;
78783;SDS011;68127;51.050;14.084;2023-06-26T05:04:19;10.23;;;5.47;;
78783;SDS011;68127;51.050;14.084;2023-06-26T05:06:45;7.15;;;5.10;;
78783;SDS011;68127;51.050;14.084;2023-06-26T05:09:10;9.15;;;5.20;;
78783;SDS011;68127;51.050;14.084;2023-06-26T05:11:35;7.10;;;5.10;;
78783;SDS011;68127;51.050;14.084;2023-06-26T05:14:01;7.75;;;5.10;;
78783;SDS011;68127;51.050;14.084;2023-06-26T05:16:26;7.00;;;5.13;;
78783;SDS011;68127;51.050;14.084;2023-06-26T05:18:52;6.47;;;4.70;;
78783;SDS011;68127;51.050;14.084;2023-06-26T05:21:19;7.82;;;5.60;;
78783;SDS011;68127;51.050;14.084;2023-06-26T05:23:44;8.57;;;5.03;;
78783;SDS011;68127;51.050;14.084;2023-06-26T05:26:10;7.18;;;5.25;;
78783;SDS011;68127;51.050;14.084;2023-06-26T05:28:36;9.45;;;5.22;;
78783;SDS011;68127;51.050;14.084;2023-06-26T05:31:02;7.72;;;5.07;;
78783;SDS011;68127;51.050;14.084;2023-06-26T05:33:29;6.72;;;4.93;;
78783;SDS011;68127;51.050;14.084;2023-06-26T05:35:55;7.13;;;5.18;;
78783;SDS011;68127;51.050;14.084;2023-06-26T05:38:21;7.38;;;5.10;;
78783;SDS011;68127;51.050;14.084;2023-06-26T05:40:46;7.13;;;4.85;;
78783;SDS011;68127;51.050;14.084;2023-06-26T05:43:12;7.90;;;5.05;;
78783;SDS011;68127;51.050;14.084;2023-06-26T05:45:37;7.90;;;4.82;;
78783;SDS011;68127;51.050;14.084;2023-06-26T05:48:03;7.25;;;4.97;;
78783;SDS011;68127;51.050;14.084;2023-06-26T05:50:28;8.82;;;5.18;;
78783;SDS011;68127;51.050;14.084;2023-06-26T05:52:54;8.63;;;4.90;;
78783;SDS011;68127;51.050;14.084;2023-06-26T05:55:20;7.75;;;5.30;;
78783;SDS011;68127;51.050;14.084;2023-06-26T05:57:45;6.97;;;5.07;;
78783;SDS011;68127;51.050;14.084;2023-06-26T06:00:11;10.20;;;5.88;;
78783;SDS011;68127;51.050;14.084;2023-06-26T06:02:37;8.10;;;4.72;;
78783;SDS011;68127;51.050;14.084;2023-06-26T06:05:03;8.68;;;4.90;;
78783;SDS011;68127;51.050;14.084;2023-06-26T06:07:30;7.28;;;4.50;;
78783;SDS011;68127;51.050;14.084;2023-06-26T06:09:56;7.28;;;5.18;;
78783;SDS011;68127;51.050;14.084;2023-06-26T06:12:22;8.77;;;5.63;;
78783;SDS011;68127;51.050;14.084;2023-06-26T06:14:47;8.85;;;5.70;;
78783;SDS011;68127;51.050;14.084;2023-06-26T06:17:12;8.55;;;5.22;;
78783;SDS011;68127;51.050;14.084;2023-06-26T06:19:38;8.70;;;5.60;;
78783;SDS011;68127;51.050;14.084;2023-06-26T06:22:03;6.85;;;5.18;;
78783;SDS011;68127;51.050;14.084;2023-06-26T06:24:28;8.45;;;5.25;;
78783;SDS011;68127;51.050;14.084;2023-06-26T06:26:53;12.18;;;5.43;;
78783;SDS011;68127;51.050;14.084;2023-06-26T06:29:19;8.18;;;5.75;;
78783;SDS011;68127;51.050;14.084;2023-06-26T06:31:44;8.55;;;5.60;;
78783;SDS011;68127;51.050;14.084;2023-06-26T06:34:10;7.28;;;4.85;;
78783;SDS011;68127;51.050;14.084;2023-06-26T06:36:35;8.25;;;4.93;;
78783;SDS011;68127;51.050;14.084;2023-06-26T06:39:00;7.93;;;5.03;;
78783;SDS011;68127;51.050;14.084;2023-06-26T06:41:25;7.80;;;5.10;;
78783;SDS011;68127;51.050;14.084;2023-06-26T06:43:51;8.55;;;5.70;;
78783;SDS011;68127;51.050;14.084;2023-06-26T06:46:16;7.10;;;5.03;;
78783;SDS011;68127;51.050;14.084;2023-06-26T06:48:41;7.80;;;4.82;;
78783;SDS011;68127;51.050;14.084;2023-06-26T06:51:07;7.60;;;5.50;;
78783;SDS011;68127;51.050;14.084;2023-06-26T06:53:32;8.98;;;5.70;;
78783;SDS011;68127;51.050;14.084;2023-06-26T06:55:57;7.43;;;4.97;;
78783;SDS011;68127;51.050;14.084;2023-06-26T06:58:22;8.55;;;5.40;;
78783;SDS011;68127;51.050;14.084;2023-06-26T07:00:48;7.72;;;5.28;;
78783;SDS011;68127;51.050;14.084;2023-06-26T07:03:13;7.45;;;4.65;;
78783;SDS011;68127;51.050;14.084;2023-06-26T07:05:41;9.32;;;5.13;;
78783;SDS011;68127;51.050;14.084;2023-06-26T07:08:06;11.60;;;4.82;;
78783;SDS011;68127;51.050;14.084;2023-06-26T07:10:31;7.40;;;4.80;;
78783;SDS011;68127;51.050;14.084;2023-06-26T07:12:57;7.47;;;5.20;;
78783;SDS011;68127;51.050;14.084;2023-06-26T07:15:22;9.13;;;5.10;;
78783;SDS011;68127;51.050;14.084;2023-06-26T07:17:47;7.68;;;5.00;;
78783;SDS011;68127;51.050;14.084;2023-06-26T07:20:13;8.93;;;5.18;;
78783;SDS011;68127;51.050;14.084;2023-06-26T07:22:40;7.93;;;4.95;;
78783;SDS011;68127;51.050;14.084;2023-06-26T07:25:06;7.07;;;5.13;;
78783;SDS011;68127;51.050;14.084;2023-06-26T07:27:34;8.00;;;5.10;;
78783;SDS011;68127;51.050;14.084;2023-06-26T07:29:59;7.13;;;4.95;;
78783;SDS011;68127;51.050;14.084;2023-06-26T07:32:24;7.20;;;4.75;;
78783;SDS011;68127;51.050;14.084;2023-06-26T07:34:49;8.00;;;5.18;;
78783;SDS011;68127;51.050;14.084;2023-06-26T07:37:15;9.50;;;4.85;;
78783;SDS011;68127;51.050;14.084;2023-06-26T07:39:40;8.20;;;5.22;;
78783;SDS011;68127;51.050;14.084;2023-06-26T07:42:05;8.60;;;4.72;;
78783;SDS011;68127;51.050;14.084;2023-06-26T07:44:30;6.80;;;4.88;;
78783;SDS011;68127;51.050;14.084;2023-06-26T07:46:56;7.10;;;5.25;;
78783;SDS011;68127;51.050;14.084;2023-06-26T07:49:21;7.32;;;5.13;;
78783;SDS011;68127;51.050;14.084;2023-06-26T07:51:47;8.13;;;5.00;;
78783;SDS011;68127;51.050;14.084;2023-06-26T07:54:12;7.93;;;5.10;;
78783;SDS011;68127;51.050;14.084;2023-06-26T07:59:28;8.02;;;5.05;;
78783;SDS011;68127;51.050;14.084;2023-06-26T08:01:54;6.40;;;4.78;;
78783;SDS011;68127;51.050;14.084;2023-06-26T08:04:20;7.15;;;5.30;;
78783;SDS011;68127;51.050;14.084;2023-06-26T08:06:48;7.82;;;5.03;;
78783;SDS011;68127;51.050;14.084;2023-06-26T08:09:13;7.25;;;5.15;;
78783;SDS011;68127;51.050;14.084;2023-06-26T08:11:39;6.75;;;5.00;;
78783;SDS011;68127;51.050;14.084;2023-06-26T08:14:04;8.02;;;5.18;;
78783;SDS011;68127;51.050;14.084;2023-06-26T08:16:29;7.57;;;4.97;;
78783;SDS011;68127;51.050;14.084;2023-06-26T08:18:54;7.35;;;5.25;;
78783;SDS011;68127;51.050;14.084;2023-06-26T08:21:20;7.28;;;4.55;;
78783;SDS011;68127;51.050;14.084;2023-06-26T08:23:45;6.55;;;5.10;;
78783;SDS011;68127;51.050;14.084;2023-06-26T08:26:10;7.40;;;5.22;;
78783;SDS011;68127;51.050;14.084;2023-06-26T08:28:36;6.70;;;5.20;;
78783;SDS011;68127;51.050;14.084;2023-06-26T08:31:01;6.80;;;4.65;;
78783;SDS011;68127;51.050;14.084;2023-06-26T08:33:26;6.53;;;4.30;;
78783;SDS011;68127;51.050;14.084;2023-06-26T08:35:51;7.60;;;4.70;;
78783;SDS011;68127;51.050;14.084;2023-06-26T08:38:17;7.10;;;4.88;;
78783;SDS011;68127;51.050;14.084;2023-06-26T08:40:42;6.60;;;4.43;;
78783;SDS011;68127;51.050;14.084;2023-06-26T08:43:07;5.80;;;4.47;;
78783;SDS011;68127;51.050;14.084;2023-06-26T08:45:33;9.02;;;5.20;;
78783;SDS011;68127;51.050;14.084;2023-06-26T08:47:59;8.85;;;4.88;;
78783;SDS011;68127;51.050;14.084;2023-06-26T08:50:26;6.80;;;4.90;;
78783;SDS011;68127;51.050;14.084;2023-06-26T08:52:56;7.63;;;4.80;;
78783;SDS011;68127;51.050;14.084;2023-06-26T08:55:26;11.98;;;4.85;;
78783;SDS011;68127;51.050;14.084;2023-06-26T08:57:52;7.38;;;4.78;;
78783;SDS011;68127;51.050;14.084;2023-06-26T09:00:18;9.35;;;5.18;;
78783;SDS011;68127;51.050;14.084;2023-06-26T09:02:44;9.85;;;4.80;;
78783;SDS011;68127;51.050;14.084;2023-06-26T09:05:29;7.87;;;4.97;;
78783;SDS011;68127;51.050;14.084;2023-06-26T09:07:57;9.32;;;4.78;;
78783;SDS011;68127;51.050;14.084;2023-06-26T09:10:22;7.32;;;4.78;;
78783;SDS011;68127;51.050;14.084;2023-06-26T09:12:47;6.50;;;4.85;;
78783;SDS011;68127;51.050;14.084;2023-06-26T09:15:14;6.70;;;5.00;;
78783;SDS011;68127;51.050;14.084;2023-06-26T09:17:40;7.82;;;5.03;;
78783;SDS011;68127;51.050;14.084;2023-06-26T09:20:06;6.25;;;4.65;;
78783;SDS011;68127;51.050;14.084;2023-06-26T09:22:33;6.13;;;4.65;;
78783;SDS011;68127;51.050;14.084;2023-06-26T09:25:05;8.38;;;4.95;;
78783;SDS011;68127;51.050;14.084;2023-06-26T09:27:31;8.43;;;4.90;;
78783;SDS011;68127;51.050;14.084;2023-06-26T09:29:56;9.68;;;5.22;;
78783;SDS011;68127;51.050;14.084;2023-06-26T09:32:26;7.72;;;5.15;;
78783;SDS011;68127;51.050;14.084;2023-06-26T09:34:53;8.32;;;5.28;;
78783;SDS011;68127;51.050;14.084;2023-06-26T09:37:20;7.53;;;5.07;;
78783;SDS011;68127;51.050;14.084;2023-06-26T09:39:46;6.78;;;4.85;;
78783;SDS011;68127;51.050;14.084;2023-06-26T09:42:13;9.27;;;5.03;;
78783;SDS011;68127;51.050;14.084;2023-06-26T09:44:43;7.75;;;4.60;;
78783;SDS011;68127;51.050;14.084;2023-06-26T09:47:09;9.30;;;4.90;;
78783;SDS011;68127;51.050;14.084;2023-06-26T09:49:34;7.15;;;4.68;;
78783;SDS011;68127;51.050;14.084;2023-06-26T09:52:00;9.60;;;5.07;;
78783;SDS011;68127;51.050;14.084;2023-06-26T09:54:25;6.82;;;4.93;;
78783;SDS011;68127;51.050;14.084;2023-06-26T09:56:55;7.32;;;4.72;;
78783;SDS011;68127;51.050;14.084;2023-06-26T09:59:20;8.20;;;5.65;;
78783;SDS011;68127;51.050;14.084;2023-06-26T10:01:46;7.25;;;4.80;;
78783;SDS011;68127;51.050;14.084;2023-06-26T10:04:11;7.32;;;5.22;;
78783;SDS011;68127;51.050;14.084;2023-06-26T10:06:40;6.85;;;4.80;;
78783;SDS011;68127;51.050;14.084;2023-06-26T10:09:07;7.70;;;4.95;;
78783;SDS011;68127;51.050;14.084;2023-06-26T10:11:46;7.40;;;5.35;;
78783;SDS011;68127;51.050;14.084;2023-06-26T10:14:20;10.82;;;4.70;;
78783;SDS011;68127;51.050;14.084;2023-06-26T10:16:47;6.53;;;4.72;;
78783;SDS011;68127;51.050;14.084;2023-06-26T10:19:14;6.90;;;4.93;;
78783;SDS011;68127;51.050;14.084;2023-06-26T10:21:43;7.78;;;4.70;;
78783;SDS011;68127;51.050;14.084;2023-06-26T10:24:09;6.78;;;4.88;;
78783;SDS011;68127;51.050;14.084;2023-06-26T10:26:35;6.70;;;4.82;;
78783;SDS011;68127;51.050;14.084;2023-06-26T10:29:03;6.93;;;4.90;;
78783;SDS011;68127;51.050;14.084;2023-06-26T10:31:30;9.85;;;4.90;;
78783;SDS011;68127;51.050;14.084;2023-06-26T10:33:56;6.13;;;4.85;;
78783;SDS011;68127;51.050;14.084;2023-06-26T10:36:27;6.20;;;4.60;;
78783;SDS011;68127;51.050;14.084;2023-06-26T10:38:55;6.38;;;4.85;;
78783;SDS011;68127;51.050;14.084;2023-06-26T10:41:22;7.97;;;5.45;;
78783;SDS011;68127;51.050;14.084;2023-06-26T10:44:12;6.50;;;4.82;;
78783;SDS011;68127;51.050;14.084;2023-06-26T10:46:52;6.70;;;5.15;;
78783;SDS011;68127;51.050;14.084;2023-06-26T10:49:19;7.45;;;5.13;;
78783;SDS011;68127;51.050;14.084;2023-06-26T10:51:49;10.02;;;5.13;;
78783;SDS011;68127;51.050;14.084;2023-06-26T10:54:15;6.20;;;4.60;;
78783;SDS011;68127;51.050;14.084;2023-06-26T10:56:42;7.40;;;5.03;;
78783;SDS011;68127;51.050;14.084;2023-06-26T11:01:41;10.00;;;4.97;;
78783;SDS011;68127;51.050;14.084;2023-06-26T11:04:07;6.85;;;4.90;;
78783;SDS011;68127;51.050;14.084;2023-06-26T11:06:34;7.03;;;5.05;;
78783;SDS011;68127;51.050;14.084;2023-06-26T11:09:10;7.95;;;4.85;;
78783;SDS011;68127;51.050;14.084;2023-06-26T11:14:20;7.28;;;4.65;;
78783;SDS011;68127;51.050;14.084;2023-06-26T11:16:47;9.27;;;5.40;;
78783;SDS011;68127;51.050;14.084;2023-06-26T11:19:13;10.93;;;5.00;;
78783;SDS011;68127;51.050;14.084;2023-06-26T11:21:40;7.65;;;5.10;;
78783;SDS011;68127;51.050;14.084;2023-06-26T11:24:06;7.05;;;5.32;;
78783;SDS011;68127;51.050;14.084;2023-06-26T11:26:42;9.02;;;5.10;;
78783;SDS011;68127;51.050;14.084;2023-06-26T11:29:08;8.65;;;5.15;;
78783;SDS011;68127;51.050;14.084;2023-06-26T11:31:35;7.38;;;4.82;;
78783;SDS011;68127;51.050;14.084;2023-06-26T11:34:03;7.00;;;5.07;;
78783;SDS011;68127;51.050;14.084;2023-06-26T11:36:29;7.72;;;4.63;;
78783;SDS011;68127;51.050;14.084;2023-06-26T11:38:59;8.00;;;4.85;;
78783;SDS011;68127;51.050;14.084;2023-06-26T11:41:26;9.13;;;5.10;;
78783;SDS011;68127;51.050;14.084;2023-06-26T11:43:53;7.97;;;4.78;;
78783;SDS011;68127;51.050;14.084;2023-06-26T11:46:21;7.22;;;4.43;;
78783;SDS011;68127;51.050;14.084;2023-06-26T11:48:47;10.95;;;4.65;;
78783;SDS011;68127;51.050;14.084;2023-06-26T11:51:13;7.05;;;4.43;;
78783;SDS011;68127;51.050;14.084;2023-06-26T11:53:40;8.15;;;4.90;;
78783;SDS011;68127;51.050;14.084;2023-06-26T11:56:09;5.60;;;4.10;;
78783;SDS011;68127;51.050;14.084;2023-06-26T11:58:35;6.68;;;4.60;;
78783;SDS011;68127;51.050;14.084;2023-06-26T12:01:01;7.32;;;4.60;;
78783;SDS011;68127;51.050;14.084;2023-06-26T12:03:26;8.85;;;4.38;;
78783;SDS011;68127;51.050;14.084;2023-06-26T12:05:52;9.35;;;4.32;;
78783;SDS011;68127;51.050;14.084;2023-06-26T12:08:17;6.85;;;4.40;;
78783;SDS011;68127;51.050;14.084;2023-06-26T12:10:42;8.80;;;4.10;;
78783;SDS011;68127;51.050;14.084;2023-06-26T12:13:08;7.25;;;4.28;;
78783;SDS011;68127;51.050;14.084;2023-06-26T12:15:33;7.78;;;4.30;;
78783;SDS011;68127;51.050;14.084;2023-06-26T12:17:59;7.25;;;4.55;;
78783;SDS011;68127;51.050;14.084;2023-06-26T12:20:24;8.18;;;4.00;;
78783;SDS011;68127;51.050;14.084;2023-06-26T12:22:50;6.80;;;4.32;;
78783;SDS011;68127;51.050;14.084;2023-06-26T12:25:21;6.88;;;4.93;;
78783;SDS011;68127;51.050;14.084;2023-06-26T12:27:47;6.38;;;4.70;;
78783;SDS011;68127;51.050;14.084;2023-06-26T12:30:13;6.95;;;4.25;;
78783;SDS011;68127;51.050;14.084;2023-06-26T12:32:38;6.20;;;4.32;;
78783;SDS011;68127;51.050;14.084;2023-06-26T12:35:03;10.90;;;4.13;;
78783;SDS011;68127;51.050;14.084;2023-06-26T12:37:29;7.22;;;4.70;;
78783;SDS011;68127;51.050;14.084;2023-06-26T12:40:01;6.75;;;4.25;;
78783;SDS011;68127;51.050;14.084;2023-06-26T12:42:32;9.38;;;4.60;;
78783;SDS011;68127;51.050;14.084;2023-06-26T12:44:58;8.10;;;4.40;;
78783;SDS011;68127;51.050;14.084;2023-06-26T12:47:24;6.90;;;4.05;;
78783;SDS011;68127;51.050;14.084;2023-06-26T12:49:51;5.50;;;4.07;;
78783;SDS011;68127;51.050;14.084;2023-06-26T12:52:18;6.38;;;4.38;;
78783;SDS011;68127;51.050;14.084;2023-06-26T12:54:44;6.13;;;4.60;;
78783;SDS011;68127;51.050;14.084;2023-06-26T12:57:11;7.35;;;4.20;;
78783;SDS011;68127;51.050;14.084;2023-06-26T12:59:38;6.53;;;4.47;;
78783;SDS011;68127;51.050;14.084;2023-06-26T13:02:04;8.05;;;4.22;;
78783;SDS011;68127;51.050;14.084;2023-06-26T13:04:29;5.95;;;4.78;;
78783;SDS011;68127;51.050;14.084;2023-06-26T13:06:55;6.38;;;4.13;;
78783;SDS011;68127;51.050;14.084;2023-06-26T13:09:21;6.95;;;4.53;;
78783;SDS011;68127;51.050;14.084;2023-06-26T13:11:46;8.15;;;4.47;;
78783;SDS011;68127;51.050;14.084;2023-06-26T13:14:12;7.13;;;4.78;;
78783;SDS011;68127;51.050;14.084;2023-06-26T13:16:37;6.45;;;4.30;;
78783;SDS011;68127;51.050;14.084;2023-06-26T13:19:03;6.30;;;4.50;;
78783;SDS011;68127;51.050;14.084;2023-06-26T13:21:28;7.57;;;4.13;;
78783;SDS011;68127;51.050;14.084;2023-06-26T13:23:56;8.43;;;4.55;;
78783;SDS011;68127;51.050;14.084;2023-06-26T13:26:22;7.07;;;4.68;;
78783;SDS011;68127;51.050;14.084;2023-06-26T13:28:48;6.22;;;4.45;;
78783;SDS011;68127;51.050;14.084;2023-06-26T13:31:14;7.28;;;4.82;;
78783;SDS011;68127;51.050;14.084;2023-06-26T13:33:39;6.82;;;4.35;;
78783;SDS011;68127;51.050;14.084;2023-06-26T13:36:05;7.18;;;4.78;;
78783;SDS011;68127;51.050;14.084;2023-06-26T13:38:32;6.70;;;4.05;;
78783;SDS011;68127;51.050;14.084;2023-06-26T13:40:57;6.55;;;4.35;;
78783;SDS011;68127;51.050;14.084;2023-06-26T13:43:25;8.68;;;4.47;;
78783;SDS011;68127;51.050;14.084;2023-06-26T13:45:50;5.97;;;4.30;;
78783;SDS011;68127;51.050;14.084;2023-06-26T13:48:15;6.22;;;4.70;;
78783;SDS011;68127;51.050;14.084;2023-06-26T13:50:41;6.03;;;4.32;;
78783;SDS011;68127;51.050;14.084;2023-06-26T13:53:06;6.40;;;4.72;;
78783;SDS011;68127;51.050;14.084;2023-06-26T13:55:32;6.93;;;4.72;;
78783;SDS011;68127;51.050;14.084;2023-06-26T13:57:58;7.20;;;4.65;;
78783;SDS011;68127;51.050;14.084;2023-06-26T14:00:23;6.57;;;4.70;;
78783;SDS011;68127;51.050;14.084;2023-06-26T14:02:49;7.30;;;4.70;;
78783;SDS011;68127;51.050;14.084;2023-06-26T14:05:14;5.82;;;4.40;;
78783;SDS011;68127;51.050;14.084;2023-06-26T14:07:39;6.93;;;4.55;;
78783;SDS011;68127;51.050;14.084;2023-06-26T14:10:05;6.25;;;4.63;;
78783;SDS011;68127;51.050;14.084;2023-06-26T14:12:31;6.47;;;4.45;;
78783;SDS011;68127;51.050;14.084;2023-06-26T14:14:56;6.35;;;4.38;;
78783;SDS011;68127;51.050;14.084;2023-06-26T14:17:22;6.22;;;4.60;;
78783;SDS011;68127;51.050;14.084;2023-06-26T14:19:49;6.72;;;4.60;;
78783;SDS011;68127;51.050;14.084;2023-06-26T14:22:14;5.93;;;4.53;;
78783;SDS011;68127;51.050;14.084;2023-06-26T14:24:39;6.32;;;4.75;;
78783;SDS011;68127;51.050;14.084;2023-06-26T14:27:05;8.40;;;5.03;;
78783;SDS011;68127;51.050;14.084;2023-06-26T14:29:30;6.88;;;4.65;;
78783;SDS011;68127;51.050;14.084;2023-06-26T14:31:55;7.28;;;4.55;;
78783;SDS011;68127;51.050;14.084;2023-06-26T14:34:20;8.48;;;4.70;;
78783;SDS011;68127;51.050;14.084;2023-06-26T14:36:46;5.75;;;4.25;;
78783;SDS011;68127;51.050;14.084;2023-06-26T14:39:11;7.57;;;4.25;;
78783;SDS011;68127;51.050;14.084;2023-06-26T14:41:36;6.40;;;4.90;;